Standish, Maine
Current Conditions -  °F | °C
As of 12:55 PM on Tuesday 21 Oct 2014 (Local Time) from KPWM Reporting Station
Moderate Rain Moderate Rain  
Wind Chill: 12°   Ceiling: 1000
Heat Index: 12°   Visibility: 3mi
Dew Point:   Wind: 5mph
Humidity: 86%   Direction: 340°NNW
Pressure: 30"   Gusts: NA
Location:  43.74°N, 70.55°W
Report Text: KPWM 211655Z 34004KT 3SM RA BR BKN010 BKN027 OVC035 12/09 A3000 RMK AO2 P0002 T01170094
Loading
Personal Weather Stations






























Interactive Weather Map
Tropical Storm Tracking
New forecast layout! Learn more

10-Day Weather Forecast

Advertisements
Track Severe Weather on mobile